sensor_id;sensor_type;location;lat;lon;timestamp;P1;durP1;ratioP1;P2;durP2;ratioP2
56269;SDS011;42176;43.240;27.880;2024-02-28T00:01:08;11.05;;;3.92;;
56269;SDS011;42176;43.240;27.880;2024-02-28T00:03:08;8.27;;;3.80;;
56269;SDS011;42176;43.240;27.880;2024-02-28T00:05:09;15.00;;;5.17;;
56269;SDS011;42176;43.240;27.880;2024-02-28T00:07:09;10.88;;;4.75;;
56269;SDS011;42176;43.240;27.880;2024-02-28T00:09:10;10.10;;;4.93;;
56269;SDS011;42176;43.240;27.880;2024-02-28T00:11:11;16.43;;;5.40;;
56269;SDS011;42176;43.240;27.880;2024-02-28T00:13:12;9.00;;;4.20;;
56269;SDS011;42176;43.240;27.880;2024-02-28T00:15:12;16.40;;;4.60;;
56269;SDS011;42176;43.240;27.880;2024-02-28T00:17:13;10.87;;;4.83;;
56269;SDS011;42176;43.240;27.880;2024-02-28T00:19:14;17.23;;;5.68;;
56269;SDS011;42176;43.240;27.880;2024-02-28T00:21:14;9.33;;;4.57;;
56269;SDS011;42176;43.240;27.880;2024-02-28T00:23:15;10.25;;;4.47;;
56269;SDS011;42176;43.240;27.880;2024-02-28T00:25:15;9.50;;;4.47;;
56269;SDS011;42176;43.240;27.880;2024-02-28T00:27:16;10.50;;;4.60;;
56269;SDS011;42176;43.240;27.880;2024-02-28T00:29:17;12.77;;;4.80;;
56269;SDS011;42176;43.240;27.880;2024-02-28T00:31:17;8.43;;;3.57;;
56269;SDS011;42176;43.240;27.880;2024-02-28T00:33:18;10.45;;;3.72;;
56269;SDS011;42176;43.240;27.880;2024-02-28T00:35:19;9.07;;;3.35;;
56269;SDS011;42176;43.240;27.880;2024-02-28T00:37:20;7.20;;;4.17;;
56269;SDS011;42176;43.240;27.880;2024-02-28T00:39:21;10.40;;;4.60;;
56269;SDS011;42176;43.240;27.880;2024-02-28T00:41:22;10.80;;;4.37;;
56269;SDS011;42176;43.240;27.880;2024-02-28T00:43:22;22.90;;;6.80;;
56269;SDS011;42176;43.240;27.880;2024-02-28T00:45:23;12.03;;;5.60;;
56269;SDS011;42176;43.240;27.880;2024-02-28T00:47:24;15.47;;;4.87;;
56269;SDS011;42176;43.240;27.880;2024-02-28T00:49:24;15.57;;;4.55;;
56269;SDS011;42176;43.240;27.880;2024-02-28T00:51:25;15.27;;;4.23;;
56269;SDS011;42176;43.240;27.880;2024-02-28T00:53:25;16.20;;;4.53;;
56269;SDS011;42176;43.240;27.880;2024-02-28T00:55:26;7.63;;;4.20;;
56269;SDS011;42176;43.240;27.880;2024-02-28T00:57:26;12.27;;;4.33;;
56269;SDS011;42176;43.240;27.880;2024-02-28T00:59:27;13.10;;;4.60;;
56269;SDS011;42176;43.240;27.880;2024-02-28T01:01:27;14.80;;;4.13;;
56269;SDS011;42176;43.240;27.880;2024-02-28T01:03:28;15.50;;;3.80;;
56269;SDS011;42176;43.240;27.880;2024-02-28T01:05:29;8.90;;;3.63;;
56269;SDS011;42176;43.240;27.880;2024-02-28T01:07:30;12.40;;;3.70;;
56269;SDS011;42176;43.240;27.880;2024-02-28T01:09:30;11.83;;;4.80;;
56269;SDS011;42176;43.240;27.880;2024-02-28T01:11:31;7.65;;;5.10;;
56269;SDS011;42176;43.240;27.880;2024-02-28T01:13:32;22.50;;;5.73;;
56269;SDS011;42176;43.240;27.880;2024-02-28T01:15:32;18.40;;;4.80;;
56269;SDS011;42176;43.240;27.880;2024-02-28T01:17:33;10.10;;;5.22;;
56269;SDS011;42176;43.240;27.880;2024-02-28T01:19:33;28.60;;;6.13;;
56269;SDS011;42176;43.240;27.880;2024-02-28T01:21:34;15.27;;;5.37;;
56269;SDS011;42176;43.240;27.880;2024-02-28T01:23:35;16.73;;;5.23;;
56269;SDS011;42176;43.240;27.880;2024-02-28T01:25:35;20.20;;;6.50;;
56269;SDS011;42176;43.240;27.880;2024-02-28T01:27:36;13.33;;;6.27;;
56269;SDS011;42176;43.240;27.880;2024-02-28T01:29:36;21.52;;;5.38;;
56269;SDS011;42176;43.240;27.880;2024-02-28T01:31:37;20.17;;;4.65;;
56269;SDS011;42176;43.240;27.880;2024-02-28T01:33:37;8.20;;;3.63;;
56269;SDS011;42176;43.240;27.880;2024-02-28T01:35:38;17.20;;;4.87;;
56269;SDS011;42176;43.240;27.880;2024-02-28T01:37:38;17.75;;;6.07;;
56269;SDS011;42176;43.240;27.880;2024-02-28T01:39:39;6.20;;;2.60;;
56269;SDS011;42176;43.240;27.880;2024-02-28T01:41:39;19.00;;;5.13;;
56269;SDS011;42176;43.240;27.880;2024-02-28T01:43:40;14.10;;;5.30;;
56269;SDS011;42176;43.240;27.880;2024-02-28T01:45:42;15.70;;;5.93;;
56269;SDS011;42176;43.240;27.880;2024-02-28T01:47:43;16.73;;;6.40;;
56269;SDS011;42176;43.240;27.880;2024-02-28T01:49:43;16.98;;;5.05;;
56269;SDS011;42176;43.240;27.880;2024-02-28T01:51:47;21.35;;;5.53;;
56269;SDS011;42176;43.240;27.880;2024-02-28T01:53:48;11.00;;;4.40;;
56269;SDS011;42176;43.240;27.880;2024-02-28T01:57:52;13.07;;;5.97;;
56269;SDS011;42176;43.240;27.880;2024-02-28T01:59:53;14.15;;;6.72;;
56269;SDS011;42176;43.240;27.880;2024-02-28T02:03:55;14.93;;;5.93;;
56269;SDS011;42176;43.240;27.880;2024-02-28T02:05:56;25.08;;;7.55;;
56269;SDS011;42176;43.240;27.880;2024-02-28T02:07:57;18.37;;;6.83;;
56269;SDS011;42176;43.240;27.880;2024-02-28T02:09:58;19.85;;;7.75;;
56269;SDS011;42176;43.240;27.880;2024-02-28T02:11:59;16.17;;;7.23;;
56269;SDS011;42176;43.240;27.880;2024-02-28T02:13:59;12.77;;;6.13;;
56269;SDS011;42176;43.240;27.880;2024-02-28T02:16:00;15.15;;;6.22;;
56269;SDS011;42176;43.240;27.880;2024-02-28T02:18:00;12.93;;;5.53;;
56269;SDS011;42176;43.240;27.880;2024-02-28T02:20:01;15.95;;;5.55;;
56269;SDS011;42176;43.240;27.880;2024-02-28T02:22:02;13.17;;;5.63;;
56269;SDS011;42176;43.240;27.880;2024-02-28T02:24:05;17.23;;;7.05;;
56269;SDS011;42176;43.240;27.880;2024-02-28T02:26:06;14.35;;;4.28;;
56269;SDS011;42176;43.240;27.880;2024-02-28T02:28:07;19.55;;;5.78;;
56269;SDS011;42176;43.240;27.880;2024-02-28T02:30:08;12.70;;;4.88;;
56269;SDS011;42176;43.240;27.880;2024-02-28T02:32:09;11.82;;;5.78;;
56269;SDS011;42176;43.240;27.880;2024-02-28T02:34:09;19.75;;;7.35;;
56269;SDS011;42176;43.240;27.880;2024-02-28T02:36:10;15.63;;;7.40;;
56269;SDS011;42176;43.240;27.880;2024-02-28T02:38:10;14.23;;;5.70;;
56269;SDS011;42176;43.240;27.880;2024-02-28T02:40:11;15.90;;;5.53;;
56269;SDS011;42176;43.240;27.880;2024-02-28T02:42:12;19.00;;;4.05;;
56269;SDS011;42176;43.240;27.880;2024-02-28T02:44:15;17.48;;;5.35;;
56269;SDS011;42176;43.240;27.880;2024-02-28T02:46:15;13.82;;;6.03;;
56269;SDS011;42176;43.240;27.880;2024-02-28T02:48:16;15.23;;;5.50;;
56269;SDS011;42176;43.240;27.880;2024-02-28T02:50:16;12.90;;;4.45;;
56269;SDS011;42176;43.240;27.880;2024-02-28T02:52:17;12.95;;;5.13;;
56269;SDS011;42176;43.240;27.880;2024-02-28T02:54:17;9.68;;;5.63;;
56269;SDS011;42176;43.240;27.880;2024-02-28T02:56:18;11.20;;;5.22;;
56269;SDS011;42176;43.240;27.880;2024-02-28T02:58:18;11.05;;;5.43;;
56269;SDS011;42176;43.240;27.880;2024-02-28T03:00:19;11.88;;;6.07;;
56269;SDS011;42176;43.240;27.880;2024-02-28T03:02:20;21.58;;;5.30;;
56269;SDS011;42176;43.240;27.880;2024-02-28T03:04:20;10.73;;;4.18;;
56269;SDS011;42176;43.240;27.880;2024-02-28T03:06:21;16.05;;;7.13;;
56269;SDS011;42176;43.240;27.880;2024-02-28T03:08:24;14.70;;;6.32;;
56269;SDS011;42176;43.240;27.880;2024-02-28T03:10:24;20.95;;;7.22;;
56269;SDS011;42176;43.240;27.880;2024-02-28T03:12:25;13.45;;;6.05;;
56269;SDS011;42176;43.240;27.880;2024-02-28T03:14:25;13.85;;;5.57;;
56269;SDS011;42176;43.240;27.880;2024-02-28T03:16:27;13.77;;;4.60;;
56269;SDS011;42176;43.240;27.880;2024-02-28T03:18:29;13.43;;;5.25;;
56269;SDS011;42176;43.240;27.880;2024-02-28T03:20:29;23.88;;;5.93;;
56269;SDS011;42176;43.240;27.880;2024-02-28T03:22:30;9.55;;;5.10;;
56269;SDS011;42176;43.240;27.880;2024-02-28T03:24:30;19.42;;;5.63;;
56269;SDS011;42176;43.240;27.880;2024-02-28T03:26:31;11.80;;;5.03;;
56269;SDS011;42176;43.240;27.880;2024-02-28T03:28:31;13.00;;;5.07;;
56269;SDS011;42176;43.240;27.880;2024-02-28T03:30:32;21.60;;;5.05;;
56269;SDS011;42176;43.240;27.880;2024-02-28T03:32:33;7.78;;;4.18;;
56269;SDS011;42176;43.240;27.880;2024-02-28T03:34:33;7.87;;;4.47;;
56269;SDS011;42176;43.240;27.880;2024-02-28T03:36:34;14.43;;;5.63;;
56269;SDS011;42176;43.240;27.880;2024-02-28T03:38:35;16.40;;;8.73;;
56269;SDS011;42176;43.240;27.880;2024-02-28T03:40:36;15.93;;;5.15;;
56269;SDS011;42176;43.240;27.880;2024-02-28T03:42:37;16.70;;;5.45;;
56269;SDS011;42176;43.240;27.880;2024-02-28T03:44:37;15.10;;;4.95;;
56269;SDS011;42176;43.240;27.880;2024-02-28T03:46:38;13.27;;;5.13;;
56269;SDS011;42176;43.240;27.880;2024-02-28T03:48:38;19.63;;;8.27;;
56269;SDS011;42176;43.240;27.880;2024-02-28T03:50:39;20.20;;;9.00;;
56269;SDS011;42176;43.240;27.880;2024-02-28T03:52:39;20.30;;;9.35;;
56269;SDS011;42176;43.240;27.880;2024-02-28T03:54:42;19.30;;;9.23;;
56269;SDS011;42176;43.240;27.880;2024-02-28T03:56:43;16.13;;;6.43;;
56269;SDS011;42176;43.240;27.880;2024-02-28T03:58:44;12.77;;;6.75;;
56269;SDS011;42176;43.240;27.880;2024-02-28T04:00:44;13.55;;;6.45;;
56269;SDS011;42176;43.240;27.880;2024-02-28T04:02:46;21.15;;;6.75;;
56269;SDS011;42176;43.240;27.880;2024-02-28T04:04:46;8.77;;;5.32;;
56269;SDS011;42176;43.240;27.880;2024-02-28T04:06:47;18.77;;;6.38;;
56269;SDS011;42176;43.240;27.880;2024-02-28T04:08:47;22.20;;;6.82;;
56269;SDS011;42176;43.240;27.880;2024-02-28T04:10:48;23.75;;;7.07;;
56269;SDS011;42176;43.240;27.880;2024-02-28T04:12:50;15.93;;;7.13;;
56269;SDS011;42176;43.240;27.880;2024-02-28T04:14:50;16.70;;;8.13;;
56269;SDS011;42176;43.240;27.880;2024-02-28T04:16:51;17.13;;;7.28;;
56269;SDS011;42176;43.240;27.880;2024-02-28T04:18:51;8.30;;;5.25;;
56269;SDS011;42176;43.240;27.880;2024-02-28T04:20:52;11.07;;;4.05;;
56269;SDS011;42176;43.240;27.880;2024-02-28T04:22:53;16.13;;;5.13;;
56269;SDS011;42176;43.240;27.880;2024-02-28T04:24:53;16.20;;;4.57;;
56269;SDS011;42176;43.240;27.880;2024-02-28T04:26:54;20.65;;;5.65;;
56269;SDS011;42176;43.240;27.880;2024-02-28T04:28:55;12.15;;;5.55;;
56269;SDS011;42176;43.240;27.880;2024-02-28T04:30:56;12.18;;;5.20;;
56269;SDS011;42176;43.240;27.880;2024-02-28T04:32:57;11.18;;;5.40;;
56269;SDS011;42176;43.240;27.880;2024-02-28T04:34:57;13.02;;;5.80;;
56269;SDS011;42176;43.240;27.880;2024-02-28T04:36:58;22.87;;;6.60;;
56269;SDS011;42176;43.240;27.880;2024-02-28T04:38:58;14.98;;;6.82;;
56269;SDS011;42176;43.240;27.880;2024-02-28T04:41:01;19.65;;;7.53;;
56269;SDS011;42176;43.240;27.880;2024-02-28T04:43:01;17.23;;;8.38;;
56269;SDS011;42176;43.240;27.880;2024-02-28T04:45:02;20.83;;;9.00;;
56269;SDS011;42176;43.240;27.880;2024-02-28T04:47:03;26.48;;;8.20;;
56269;SDS011;42176;43.240;27.880;2024-02-28T04:49:04;11.32;;;5.15;;
56269;SDS011;42176;43.240;27.880;2024-02-28T04:51:05;14.65;;;5.32;;
56269;SDS011;42176;43.240;27.880;2024-02-28T04:53:05;13.50;;;5.63;;
56269;SDS011;42176;43.240;27.880;2024-02-28T04:55:06;19.25;;;5.25;;
56269;SDS011;42176;43.240;27.880;2024-02-28T04:57:07;17.63;;;6.73;;
56269;SDS011;42176;43.240;27.880;2024-02-28T04:59:08;20.03;;;6.83;;
56269;SDS011;42176;43.240;27.880;2024-02-28T05:01:11;7.93;;;3.05;;
56269;SDS011;42176;43.240;27.880;2024-02-28T05:03:12;13.23;;;5.03;;
56269;SDS011;42176;43.240;27.880;2024-02-28T05:05:13;18.05;;;5.90;;
56269;SDS011;42176;43.240;27.880;2024-02-28T05:07:14;14.02;;;6.43;;
56269;SDS011;42176;43.240;27.880;2024-02-28T05:09:14;15.90;;;6.72;;
56269;SDS011;42176;43.240;27.880;2024-02-28T05:11:15;16.90;;;7.25;;
56269;SDS011;42176;43.240;27.880;2024-02-28T05:13:15;13.00;;;6.88;;
56269;SDS011;42176;43.240;27.880;2024-02-28T05:15:16;10.15;;;4.35;;
56269;SDS011;42176;43.240;27.880;2024-02-28T05:17:17;20.25;;;5.95;;
56269;SDS011;42176;43.240;27.880;2024-02-28T05:19:17;22.63;;;7.28;;
56269;SDS011;42176;43.240;27.880;2024-02-28T05:21:19;16.33;;;5.72;;
56269;SDS011;42176;43.240;27.880;2024-02-28T05:23:20;15.60;;;7.03;;
56269;SDS011;42176;43.240;27.880;2024-02-28T05:25:20;13.27;;;6.40;;
56269;SDS011;42176;43.240;27.880;2024-02-28T05:27:22;15.65;;;5.30;;
56269;SDS011;42176;43.240;27.880;2024-02-28T05:29:23;17.80;;;5.63;;
56269;SDS011;42176;43.240;27.880;2024-02-28T05:31:26;11.50;;;5.40;;
56269;SDS011;42176;43.240;27.880;2024-02-28T05:35:28;16.65;;;5.40;;
56269;SDS011;42176;43.240;27.880;2024-02-28T05:37:29;32.00;;;6.20;;
56269;SDS011;42176;43.240;27.880;2024-02-28T05:39:29;21.87;;;7.10;;
56269;SDS011;42176;43.240;27.880;2024-02-28T05:41:31;23.63;;;5.70;;
56269;SDS011;42176;43.240;27.880;2024-02-28T05:43:31;9.93;;;4.87;;
56269;SDS011;42176;43.240;27.880;2024-02-28T05:45:32;15.60;;;5.20;;
56269;SDS011;42176;43.240;27.880;2024-02-28T05:47:32;12.55;;;5.95;;
56269;SDS011;42176;43.240;27.880;2024-02-28T05:49:33;11.73;;;6.07;;
56269;SDS011;42176;43.240;27.880;2024-02-28T05:51:34;22.33;;;5.13;;
56269;SDS011;42176;43.240;27.880;2024-02-28T05:53:35;18.67;;;3.97;;
56269;SDS011;42176;43.240;27.880;2024-02-28T05:55:36;10.93;;;6.00;;
56269;SDS011;42176;43.240;27.880;2024-02-28T05:57:37;15.40;;;5.17;;
56269;SDS011;42176;43.240;27.880;2024-02-28T05:59:38;21.83;;;6.35;;
56269;SDS011;42176;43.240;27.880;2024-02-28T06:01:39;18.50;;;5.37;;
56269;SDS011;42176;43.240;27.880;2024-02-28T06:03:40;18.92;;;5.30;;
56269;SDS011;42176;43.240;27.880;2024-02-28T06:05:41;8.60;;;4.07;;
56269;SDS011;42176;43.240;27.880;2024-02-28T06:07:42;12.23;;;5.03;;
56269;SDS011;42176;43.240;27.880;2024-02-28T06:09:42;14.10;;;5.33;;
56269;SDS011;42176;43.240;27.880;2024-02-28T06:11:43;11.73;;;5.10;;
56269;SDS011;42176;43.240;27.880;2024-02-28T06:13:43;14.47;;;4.27;;
56269;SDS011;42176;43.240;27.880;2024-02-28T06:15:44;13.23;;;4.00;;
56269;SDS011;42176;43.240;27.880;2024-02-28T06:17:44;10.67;;;3.53;;
56269;SDS011;42176;43.240;27.880;2024-02-28T06:19:45;12.37;;;4.23;;
56269;SDS011;42176;43.240;27.880;2024-02-28T06:21:45;9.33;;;4.10;;
56269;SDS011;42176;43.240;27.880;2024-02-28T06:23:46;13.07;;;3.63;;
56269;SDS011;42176;43.240;27.880;2024-02-28T06:25:46;16.43;;;4.37;;
56269;SDS011;42176;43.240;27.880;2024-02-28T06:27:47;18.10;;;3.27;;
56269;SDS011;42176;43.240;27.880;2024-02-28T06:29:48;9.60;;;3.17;;
56269;SDS011;42176;43.240;27.880;2024-02-28T06:31:52;11.20;;;3.45;;
56269;SDS011;42176;43.240;27.880;2024-02-28T06:33:52;13.98;;;3.78;;
56269;SDS011;42176;43.240;27.880;2024-02-28T06:35:53;14.27;;;4.77;;
56269;SDS011;42176;43.240;27.880;2024-02-28T06:37:53;13.13;;;3.17;;
56269;SDS011;42176;43.240;27.880;2024-02-28T06:39:54;7.63;;;3.00;;
56269;SDS011;42176;43.240;27.880;2024-02-28T06:41:55;10.13;;;3.03;;
56269;SDS011;42176;43.240;27.880;2024-02-28T06:43:55;13.83;;;4.33;;
56269;SDS011;42176;43.240;27.880;2024-02-28T06:45:56;11.77;;;3.70;;
56269;SDS011;42176;43.240;27.880;2024-02-28T06:47:57;17.67;;;2.97;;
56269;SDS011;42176;43.240;27.880;2024-02-28T06:49:58;8.13;;;3.22;;
56269;SDS011;42176;43.240;27.880;2024-02-28T06:51:58;14.67;;;3.70;;
56269;SDS011;42176;43.240;27.880;2024-02-28T06:54:01;10.30;;;3.33;;
56269;SDS011;42176;43.240;27.880;2024-02-28T06:56:02;14.63;;;3.80;;
56269;SDS011;42176;43.240;27.880;2024-02-28T06:58:03;9.77;;;3.33;;
56269;SDS011;42176;43.240;27.880;2024-02-28T07:00:05;12.13;;;3.50;;
56269;SDS011;42176;43.240;27.880;2024-02-28T07:02:08;9.57;;;2.75;;
56269;SDS011;42176;43.240;27.880;2024-02-28T07:04:08;10.33;;;3.00;;
56269;SDS011;42176;43.240;27.880;2024-02-28T07:06:09;14.73;;;3.10;;
56269;SDS011;42176;43.240;27.880;2024-02-28T07:08:11;14.85;;;3.00;;
56269;SDS011;42176;43.240;27.880;2024-02-28T07:10:11;10.60;;;3.23;;
56269;SDS011;42176;43.240;27.880;2024-02-28T07:12:12;13.10;;;2.37;;
56269;SDS011;42176;43.240;27.880;2024-02-28T07:14:13;9.03;;;2.80;;
56269;SDS011;42176;43.240;27.880;2024-02-28T07:16:13;11.13;;;3.87;;
56269;SDS011;42176;43.240;27.880;2024-02-28T07:18:14;7.47;;;3.20;;
56269;SDS011;42176;43.240;27.880;2024-02-28T07:20:15;9.55;;;2.80;;
56269;SDS011;42176;43.240;27.880;2024-02-28T07:22:16;11.50;;;3.87;;
56269;SDS011;42176;43.240;27.880;2024-02-28T07:24:17;13.55;;;3.60;;
56269;SDS011;42176;43.240;27.880;2024-02-28T07:26:18;7.47;;;3.40;;
56269;SDS011;42176;43.240;27.880;2024-02-28T07:28:19;8.13;;;2.63;;
56269;SDS011;42176;43.240;27.880;2024-02-28T07:30:19;17.40;;;3.73;;
56269;SDS011;42176;43.240;27.880;2024-02-28T07:32:20;13.53;;;3.60;;
56269;SDS011;42176;43.240;27.880;2024-02-28T07:34:20;6.70;;;2.50;;
56269;SDS011;42176;43.240;27.880;2024-02-28T07:36:21;7.77;;;3.30;;
56269;SDS011;42176;43.240;27.880;2024-02-28T07:38:22;5.22;;;2.75;;
56269;SDS011;42176;43.240;27.880;2024-02-28T07:40:27;10.32;;;2.63;;
56269;SDS011;42176;43.240;27.880;2024-02-28T07:42:28;10.43;;;3.63;;
56269;SDS011;42176;43.240;27.880;2024-02-28T07:44:28;14.73;;;3.53;;
56269;SDS011;42176;43.240;27.880;2024-02-28T07:46:30;11.52;;;3.00;;
56269;SDS011;42176;43.240;27.880;2024-02-28T07:48:31;11.77;;;3.03;;
56269;SDS011;42176;43.240;27.880;2024-02-28T07:50:31;12.57;;;3.27;;
56269;SDS011;42176;43.240;27.880;2024-02-28T07:52:32;8.90;;;2.43;;
56269;SDS011;42176;43.240;27.880;2024-02-28T07:54:37;10.75;;;3.25;;
56269;SDS011;42176;43.240;27.880;2024-02-28T07:56:37;8.37;;;3.00;;
56269;SDS011;42176;43.240;27.880;2024-02-28T07:58:38;5.30;;;2.77;;
56269;SDS011;42176;43.240;27.880;2024-02-28T08:00:39;15.13;;;2.97;;
56269;SDS011;42176;43.240;27.880;2024-02-28T08:02:41;6.07;;;2.78;;
56269;SDS011;42176;43.240;27.880;2024-02-28T08:04:41;11.45;;;2.72;;
56269;SDS011;42176;43.240;27.880;2024-02-28T08:06:42;14.67;;;3.93;;
56269;SDS011;42176;43.240;27.880;2024-02-28T08:08:45;9.13;;;3.83;;
56269;SDS011;42176;43.240;27.880;2024-02-28T08:10:46;6.22;;;3.00;;
56269;SDS011;42176;43.240;27.880;2024-02-28T08:12:49;8.60;;;2.90;;
56269;SDS011;42176;43.240;27.880;2024-02-28T08:14:49;12.23;;;3.33;;
56269;SDS011;42176;43.240;27.880;2024-02-28T08:16:50;14.30;;;3.30;;
56269;SDS011;42176;43.240;27.880;2024-02-28T08:18:50;10.27;;;2.80;;
56269;SDS011;42176;43.240;27.880;2024-02-28T08:20:51;11.40;;;3.03;;
56269;SDS011;42176;43.240;27.880;2024-02-28T08:22:53;7.78;;;2.38;;
56269;SDS011;42176;43.240;27.880;2024-02-28T08:24:56;19.48;;;3.20;;
56269;SDS011;42176;43.240;27.880;2024-02-28T08:26:56;10.17;;;2.27;;
56269;SDS011;42176;43.240;27.880;2024-02-28T08:28:57;4.30;;;2.27;;
56269;SDS011;42176;43.240;27.880;2024-02-28T08:30:58;5.27;;;2.70;;
56269;SDS011;42176;43.240;27.880;2024-02-28T08:32:59;14.47;;;3.93;;
56269;SDS011;42176;43.240;27.880;2024-02-28T08:35:00;11.80;;;1.73;;
56269;SDS011;42176;43.240;27.880;2024-02-28T08:37:01;20.02;;;3.72;;
56269;SDS011;42176;43.240;27.880;2024-02-28T08:39:01;17.73;;;3.80;;
56269;SDS011;42176;43.240;27.880;2024-02-28T08:41:04;7.15;;;2.90;;
56269;SDS011;42176;43.240;27.880;2024-02-28T08:43:05;9.17;;;3.87;;
56269;SDS011;42176;43.240;27.880;2024-02-28T08:45:06;10.33;;;2.37;;
56269;SDS011;42176;43.240;27.880;2024-02-28T08:47:07;7.70;;;2.88;;
56269;SDS011;42176;43.240;27.880;2024-02-28T08:49:12;13.30;;;3.90;;
56269;SDS011;42176;43.240;27.880;2024-02-28T08:51:13;9.13;;;2.70;;
56269;SDS011;42176;43.240;27.880;2024-02-28T08:53:14;14.10;;;3.43;;
56269;SDS011;42176;43.240;27.880;2024-02-28T08:55:15;7.32;;;3.13;;
56269;SDS011;42176;43.240;27.880;2024-02-28T08:57:18;6.50;;;2.78;;
56269;SDS011;42176;43.240;27.880;2024-02-28T09:01:22;13.25;;;3.92;;
56269;SDS011;42176;43.240;27.880;2024-02-28T09:03:22;6.70;;;3.47;;
56269;SDS011;42176;43.240;27.880;2024-02-28T09:05:23;11.07;;;2.70;;
56269;SDS011;42176;43.240;27.880;2024-02-28T09:07:23;15.03;;;3.70;;
56269;SDS011;42176;43.240;27.880;2024-02-28T09:09:24;10.33;;;3.27;;
56269;SDS011;42176;43.240;27.880;2024-02-28T09:11:25;6.17;;;2.80;;
56269;SDS011;42176;43.240;27.880;2024-02-28T09:13:25;6.83;;;2.57;;
56269;SDS011;42176;43.240;27.880;2024-02-28T09:15:26;8.07;;;2.97;;
56269;SDS011;42176;43.240;27.880;2024-02-28T09:17:27;9.67;;;3.23;;
56269;SDS011;42176;43.240;27.880;2024-02-28T09:19:27;11.87;;;2.53;;
56269;SDS011;42176;43.240;27.880;2024-02-28T09:21:28;6.90;;;2.97;;
56269;SDS011;42176;43.240;27.880;2024-02-28T09:23:29;17.67;;;3.33;;
56269;SDS011;42176;43.240;27.880;2024-02-28T09:25:30;10.95;;;3.47;;
56269;SDS011;42176;43.240;27.880;2024-02-28T09:27:32;10.52;;;3.15;;
56269;SDS011;42176;43.240;27.880;2024-02-28T09:29:33;17.93;;;3.47;;
56269;SDS011;42176;43.240;27.880;2024-02-28T09:31:33;14.03;;;3.33;;
56269;SDS011;42176;43.240;27.880;2024-02-28T09:33:34;14.17;;;3.30;;
56269;SDS011;42176;43.240;27.880;2024-02-28T09:35:35;11.03;;;3.83;;
56269;SDS011;42176;43.240;27.880;2024-02-28T09:37:38;5.38;;;1.63;;
56269;SDS011;42176;43.240;27.880;2024-02-28T09:39:39;9.13;;;3.53;;
56269;SDS011;42176;43.240;27.880;2024-02-28T09:41:40;9.77;;;3.55;;
56269;SDS011;42176;43.240;27.880;2024-02-28T09:43:41;16.10;;;2.93;;
56269;SDS011;42176;43.240;27.880;2024-02-28T09:45:42;12.23;;;3.57;;
56269;SDS011;42176;43.240;27.880;2024-02-28T09:47:43;7.17;;;2.40;;
56269;SDS011;42176;43.240;27.880;2024-02-28T09:49:44;6.37;;;3.00;;
56269;SDS011;42176;43.240;27.880;2024-02-28T09:51:49;20.15;;;3.55;;
56269;SDS011;42176;43.240;27.880;2024-02-28T09:53:51;11.40;;;2.42;;
56269;SDS011;42176;43.240;27.880;2024-02-28T09:55:51;11.73;;;3.60;;
56269;SDS011;42176;43.240;27.880;2024-02-28T09:57:52;10.73;;;3.05;;
56269;SDS011;42176;43.240;27.880;2024-02-28T10:01:56;8.88;;;3.30;;
56269;SDS011;42176;43.240;27.880;2024-02-28T10:03:58;10.85;;;3.65;;
56269;SDS011;42176;43.240;27.880;2024-02-28T10:06:01;9.70;;;4.10;;
56269;SDS011;42176;43.240;27.880;2024-02-28T10:08:02;8.53;;;3.57;;
56269;SDS011;42176;43.240;27.880;2024-02-28T10:10:02;14.57;;;3.93;;
56269;SDS011;42176;43.240;27.880;2024-02-28T10:12:04;11.60;;;2.90;;
56269;SDS011;42176;43.240;27.880;2024-02-28T10:14:05;11.25;;;3.08;;
56269;SDS011;42176;43.240;27.880;2024-02-28T10:16:06;10.07;;;4.13;;
56269;SDS011;42176;43.240;27.880;2024-02-28T10:18:07;21.73;;;4.72;;
56269;SDS011;42176;43.240;27.880;2024-02-28T10:20:08;9.67;;;2.73;;
56269;SDS011;42176;43.240;27.880;2024-02-28T10:22:09;15.73;;;3.65;;
56269;SDS011;42176;43.240;27.880;2024-02-28T10:24:11;17.03;;;3.27;;
56269;SDS011;42176;43.240;27.880;2024-02-28T10:26:13;11.65;;;4.32;;
56269;SDS011;42176;43.240;27.880;2024-02-28T10:28:14;15.30;;;4.10;;
56269;SDS011;42176;43.240;27.880;2024-02-28T10:30:15;13.48;;;3.88;;
56269;SDS011;42176;43.240;27.880;2024-02-28T10:32:17;13.35;;;3.13;;
56269;SDS011;42176;43.240;27.880;2024-02-28T10:34:17;15.23;;;3.43;;
56269;SDS011;42176;43.240;27.880;2024-02-28T10:36:21;7.78;;;3.03;;
56269;SDS011;42176;43.240;27.880;2024-02-28T10:38:21;10.53;;;3.13;;
56269;SDS011;42176;43.240;27.880;2024-02-28T10:40:23;15.73;;;3.58;;
56269;SDS011;42176;43.240;27.880;2024-02-28T10:42:27;7.87;;;2.77;;
56269;SDS011;42176;43.240;27.880;2024-02-28T10:44:30;13.82;;;3.33;;
56269;SDS011;42176;43.240;27.880;2024-02-28T10:46:32;14.95;;;3.47;;
56269;SDS011;42176;43.240;27.880;2024-02-28T10:48:33;6.43;;;3.67;;
56269;SDS011;42176;43.240;27.880;2024-02-28T10:50:33;14.03;;;4.57;;
56269;SDS011;42176;43.240;27.880;2024-02-28T10:52:34;18.93;;;3.50;;
56269;SDS011;42176;43.240;27.880;2024-02-28T10:54:42;7.63;;;2.28;;
56269;SDS011;42176;43.240;27.880;2024-02-28T10:56:45;9.80;;;3.70;;
56269;SDS011;42176;43.240;27.880;2024-02-28T10:58:52;8.80;;;3.27;;
56269;SDS011;42176;43.240;27.880;2024-02-28T11:00:57;17.08;;;3.55;;
56269;SDS011;42176;43.240;27.880;2024-02-28T11:02:57;8.23;;;3.77;;
56269;SDS011;42176;43.240;27.880;2024-02-28T11:04:59;17.98;;;3.95;;
56269;SDS011;42176;43.240;27.880;2024-02-28T11:07:03;22.40;;;5.05;;
56269;SDS011;42176;43.240;27.880;2024-02-28T11:09:03;14.13;;;3.80;;
56269;SDS011;42176;43.240;27.880;2024-02-28T11:11:04;11.57;;;3.80;;
56269;SDS011;42176;43.240;27.880;2024-02-28T11:13:04;15.20;;;3.87;;
56269;SDS011;42176;43.240;27.880;2024-02-28T11:15:05;13.77;;;4.70;;
56269;SDS011;42176;43.240;27.880;2024-02-28T11:17:17;17.88;;;5.15;;
56269;SDS011;42176;43.240;27.880;2024-02-28T11:19:28;14.55;;;4.95;;
56269;SDS011;42176;43.240;27.880;2024-02-28T11:21:34;7.15;;;3.10;;
56269;SDS011;42176;43.240;27.880;2024-02-28T11:23:35;9.10;;;3.38;;
56269;SDS011;42176;43.240;27.880;2024-02-28T11:25:37;9.90;;;3.33;;
56269;SDS011;42176;43.240;27.880;2024-02-28T11:27:48;16.93;;;4.47;;
56269;SDS011;42176;43.240;27.880;2024-02-28T11:29:49;10.80;;;4.20;;
56269;SDS011;42176;43.240;27.880;2024-02-28T11:31:49;12.23;;;4.47;;
56269;SDS011;42176;43.240;27.880;2024-02-28T11:33:50;11.23;;;4.13;;
56269;SDS011;42176;43.240;27.880;2024-02-28T11:35:55;13.90;;;3.47;;
56269;SDS011;42176;43.240;27.880;2024-02-28T11:37:58;14.48;;;4.63;;
56269;SDS011;42176;43.240;27.880;2024-02-28T11:39:59;14.17;;;4.50;;
56269;SDS011;42176;43.240;27.880;2024-02-28T11:42:12;15.17;;;4.87;;
56269;SDS011;42176;43.240;27.880;2024-02-28T11:44:15;13.25;;;5.18;;
56269;SDS011;42176;43.240;27.880;2024-02-28T11:46:16;25.38;;;7.55;;
56269;SDS011;42176;43.240;27.880;2024-02-28T11:48:18;15.57;;;4.75;;
56269;SDS011;42176;43.240;27.880;2024-02-28T11:50:18;39.63;;;18.47;;
56269;SDS011;42176;43.240;27.880;2024-02-28T11:52:19;10.10;;;4.80;;
56269;SDS011;42176;43.240;27.880;2024-02-28T11:54:20;19.33;;;4.43;;
56269;SDS011;42176;43.240;27.880;2024-02-28T11:56:20;12.27;;;5.53;;
56269;SDS011;42176;43.240;27.880;2024-02-28T11:58:21;18.20;;;4.20;;
56269;SDS011;42176;43.240;27.880;2024-02-28T12:00:22;11.63;;;4.57;;